Time;durP1;ratioP1;P1;durP2;ratioP2;P2;SDS_P1;SDS_P2;PMS_P1;PMS_P2;Temp;Humidity;BMP_temperature;BMP_pressure;BME280_temperature;BME280_humidity;BME280_pressure;Samples;Min_cycle;Max_cycle;Signal;HPM_P1;HPM_P2
2021/05/08 00:02:01;;;;;;;9.02;6.30;;;;;;;;;;5049889;28;20195;-58
2021/05/08 00:04:28;;;;;;;16.63;9.00;;;;;;;;;;5054500;28;20199;-56
2021/05/08 00:07:19;;;;;;;12.20;8.75;;;;;;;;;;5054154;28;20231;-57
2021/05/08 00:09:46;;;;;;;11.00;7.60;;;;;;;;;;5054558;28;20202;-58
2021/05/08 00:12:13;;;;;;;15.43;8.60;;;;;;;;;;5053955;28;20219;-53
2021/05/08 00:14:40;;;;;;;10.80;7.15;;;;;;;;;;5048198;28;20211;-53
2021/05/08 00:17:08;;;;;;;8.95;6.70;;;;;;;;;;5050312;28;20247;-52
2021/05/08 00:20:03;;;;;;;9.63;7.35;;;;;;;;;;5053921;28;20222;-54
2021/05/08 00:22:30;;;;;;;11.65;7.35;;;;;;;;;;5055476;28;20222;-55
2021/05/08 00:24:58;;;;;;;14.43;6.78;;;;;;;;;;5055751;28;20207;-56
2021/05/08 00:27:38;;;;;;;11.77;6.70;;;;;;;;;;5055705;28;20226;-56
2021/05/08 00:30:19;;;;;;;10.55;7.93;;;;;;;;;;5051104;28;20250;-55
2021/05/08 00:32:48;;;;;;;13.38;7.70;;;;;;;;;;5055221;28;20203;-51
2021/05/08 00:35:14;;;;;;;9.02;6.80;;;;;;;;;;5051226;28;20355;-46
2021/05/08 00:37:42;;;;;;;9.55;7.63;;;;;;;;;;5053065;28;20208;-56
2021/05/08 00:40:45;;;;;;;9.05;7.75;;;;;;;;;;5063918;28;20199;-59
2021/05/08 00:43:12;;;;;;;9.60;8.25;;;;;;;;;;5060207;28;20191;-58
2021/05/08 00:45:39;;;;;;;17.98;11.85;;;;;;;;;;5058108;28;20222;-56
2021/05/08 00:48:26;;;;;;;12.02;7.97;;;;;;;;;;5053000;28;20230;-54
2021/05/08 00:50:54;;;;;;;10.75;6.70;;;;;;;;;;5054411;28;20211;-55
2021/05/08 00:53:21;;;;;;;10.65;8.05;;;;;;;;;;5053703;28;20223;-55
2021/05/08 00:56:25;;;;;;;11.02;7.80;;;;;;;;;;5059073;28;20195;-52
2021/05/08 00:58:57;;;;;;;16.10;11.90;;;;;;;;;;5055198;28;20219;-53
2021/05/08 01:01:31;;;;;;;13.07;10.10;;;;;;;;;;5054020;28;20663;-56
2021/05/08 01:03:58;;;;;;;12.40;8.68;;;;;;;;;;5057786;28;20212;-48
2021/05/08 01:06:26;;;;;;;9.68;7.60;;;;;;;;;;5054588;28;20286;-52
2021/05/08 01:08:53;;;;;;;10.60;6.88;;;;;;;;;;5050752;28;20273;-57
2021/05/08 01:11:20;;;;;;;13.50;8.73;;;;;;;;;;5053504;28;20235;-58
2021/05/08 01:13:48;;;;;;;9.45;7.47;;;;;;;;;;5055175;28;20195;-49
2021/05/08 01:16:17;;;;;;;9.73;7.45;;;;;;;;;;5053335;28;20565;-54
2021/05/08 01:18:44;;;;;;;15.52;9.40;;;;;;;;;;5054758;28;20196;-55
2021/05/08 01:21:14;;;;;;;11.27;8.05;;;;;;;;;;5051312;28;20207;-59
2021/05/08 01:23:41;;;;;;;7.95;6.13;;;;;;;;;;5046208;28;20213;-57
2021/05/08 01:26:07;;;;;;;12.18;7.95;;;;;;;;;;5047922;28;20192;-51
2021/05/08 01:29:07;;;;;;;13.25;8.20;;;;;;;;;;5046966;28;20184;-56
2021/05/08 01:31:34;;;;;;;11.07;7.20;;;;;;;;;;5044931;28;20474;-52
2021/05/08 01:34:02;;;;;;;11.20;7.38;;;;;;;;;;5053231;28;20211;-55
2021/05/08 01:36:32;;;;;;;9.35;7.35;;;;;;;;;;5054639;28;20221;-52
2021/05/08 01:38:59;;;;;;;11.07;8.15;;;;;;;;;;5057056;28;20226;-55
2021/05/08 01:41:26;;;;;;;11.15;7.55;;;;;;;;;;5054330;28;20222;-57
2021/05/08 01:44:04;;;;;;;9.02;7.50;;;;;;;;;;5057534;28;20203;-51
2021/05/08 01:46:31;;;;;;;10.30;7.55;;;;;;;;;;5052088;28;20231;-55
2021/05/08 01:48:58;;;;;;;9.43;6.82;;;;;;;;;;5057593;28;20187;-54
2021/05/08 01:51:40;;;;;;;9.52;7.45;;;;;;;;;;5057595;28;20230;-53
2021/05/08 01:54:07;;;;;;;13.55;7.85;;;;;;;;;;5054939;28;20363;-50
2021/05/08 01:56:34;;;;;;;8.90;6.95;;;;;;;;;;5056258;28;20255;-53
2021/05/08 01:59:00;;;;;;;9.15;6.68;;;;;;;;;;5055139;28;20210;-52
2021/05/08 02:01:27;;;;;;;8.63;6.85;;;;;;;;;;5057875;28;20195;-53
2021/05/08 02:04:07;;;;;;;10.70;8.20;;;;;;;;;;5052042;28;20219;-52
2021/05/08 02:06:34;;;;;;;10.02;6.85;;;;;;;;;;5056858;28;20239;-52
2021/05/08 02:09:04;;;;;;;19.35;13.38;;;;;;;;;;5049196;28;20196;-53
2021/05/08 02:12:03;;;;;;;17.27;12.60;;;;;;;;;;5052450;28;20207;-51
2021/05/08 02:14:30;;;;;;;25.27;15.43;;;;;;;;;;5055046;28;20223;-51
2021/05/08 02:16:56;;;;;;;20.52;13.15;;;;;;;;;;5057127;28;20267;-52
2021/05/08 02:19:24;;;;;;;15.18;11.93;;;;;;;;;;5057069;28;20211;-48
2021/05/08 02:21:50;;;;;;;16.52;10.45;;;;;;;;;;5057802;28;20279;-56
2021/05/08 02:24:18;;;;;;;13.18;9.45;;;;;;;;;;5057508;28;20207;-55
2021/05/08 02:26:46;;;;;;;11.15;8.02;;;;;;;;;;5057014;28;20215;-53
2021/05/08 02:29:18;;;;;;;12.45;8.73;;;;;;;;;;5056920;28;20199;-56
2021/05/08 02:31:46;;;;;;;18.00;8.05;;;;;;;;;;5056275;28;20207;-53
2021/05/08 02:34:26;;;;;;;9.30;6.65;;;;;;;;;;5056636;28;20243;-56
2021/05/08 02:36:58;;;;;;;8.60;7.50;;;;;;;;;;5057012;28;20215;-50
2021/05/08 02:39:27;;;;;;;10.35;7.28;;;;;;;;;;5057055;28;20206;-48
2021/05/08 02:41:57;;;;;;;8.43;7.07;;;;;;;;;;5056721;28;20211;-55
2021/05/08 02:44:26;;;;;;;10.60;6.95;;;;;;;;;;5057241;28;20207;-50
2021/05/08 02:46:56;;;;;;;15.52;8.65;;;;;;;;;;5057019;28;20235;-51
2021/05/08 02:49:41;;;;;;;11.38;7.50;;;;;;;;;;5056458;28;20238;-52
2021/05/08 02:52:08;;;;;;;10.07;7.57;;;;;;;;;;5053375;28;20230;-56
2021/05/08 02:54:36;;;;;;;12.10;8.07;;;;;;;;;;5056482;28;20199;-54
2021/05/08 02:57:03;;;;;;;13.57;10.75;;;;;;;;;;5051332;28;20205;-54
2021/05/08 02:59:29;;;;;;;10.15;7.63;;;;;;;;;;5056111;28;20207;-48
2021/05/08 03:02:06;;;;;;;10.65;8.57;;;;;;;;;;5054475;28;20198;-56
2021/05/08 03:04:33;;;;;;;10.40;7.78;;;;;;;;;;5056232;28;20199;-58
2021/05/08 03:07:01;;;;;;;10.95;8.13;;;;;;;;;;5056164;28;20227;-52
2021/05/08 03:09:28;;;;;;;10.65;7.60;;;;;;;;;;5053195;28;20215;-55
2021/05/08 03:11:56;;;;;;;13.15;8.40;;;;;;;;;;5056056;28;20203;-55
2021/05/08 03:14:24;;;;;;;9.98;7.47;;;;;;;;;;5056057;28;20211;-53
2021/05/08 03:16:51;;;;;;;9.63;8.05;;;;;;;;;;5056312;28;20211;-51
2021/05/08 03:19:18;;;;;;;9.27;7.53;;;;;;;;;;5056160;28;20202;-50
2021/05/08 03:21:44;;;;;;;9.30;7.85;;;;;;;;;;5056176;28;20531;-53
2021/05/08 03:24:11;;;;;;;9.32;7.72;;;;;;;;;;5056089;28;20386;-53
2021/05/08 03:26:39;;;;;;;9.77;8.30;;;;;;;;;;5056078;28;20215;-50
2021/05/08 03:29:07;;;;;;;13.38;8.90;;;;;;;;;;5056123;28;20207;-49
2021/05/08 03:31:34;;;;;;;8.30;7.05;;;;;;;;;;5056760;28;20193;-55
2021/05/08 03:34:06;;;;;;;9.93;7.80;;;;;;;;;;5056904;28;20191;-53
2021/05/08 03:36:38;;;;;;;11.55;8.05;;;;;;;;;;5051854;28;20214;-57
2021/05/08 03:39:06;;;;;;;10.13;7.38;;;;;;;;;;5056793;28;20283;-56
2021/05/08 03:41:51;;;;;;;9.18;7.15;;;;;;;;;;5056591;28;20211;-56
2021/05/08 03:44:20;;;;;;;12.20;7.97;;;;;;;;;;5056890;28;20219;-56
2021/05/08 03:46:48;;;;;;;14.00;8.15;;;;;;;;;;5056411;28;20215;-57
2021/05/08 03:49:41;;;;;;;11.90;8.32;;;;;;;;;;5056551;28;20192;-51
2021/05/08 03:55:05;;;;;;;11.75;8.20;;;;;;;;;;5056539;28;20210;-55
2021/05/08 03:57:34;;;;;;;10.38;8.18;;;;;;;;;;5056600;28;20207;-51
2021/05/08 04:00:02;;;;;;;10.85;8.27;;;;;;;;;;5056727;28;20254;-57
2021/05/08 04:02:38;;;;;;;10.13;7.60;;;;;;;;;;5056274;28;20201;-50
2021/05/08 04:05:11;;;;;;;9.85;7.85;;;;;;;;;;5056550;28;20201;-60
2021/05/08 04:07:38;;;;;;;10.88;7.95;;;;;;;;;;5056787;28;20226;-53
2021/05/08 04:10:05;;;;;;;8.27;6.75;;;;;;;;;;5056177;28;20202;-56
2021/05/08 04:12:34;;;;;;;8.85;7.53;;;;;;;;;;5036335;28;20203;-53
2021/05/08 04:15:02;;;;;;;8.02;6.78;;;;;;;;;;5032220;28;20191;-54
2021/05/08 04:17:31;;;;;;;9.52;7.82;;;;;;;;;;5039917;28;20204;-55
2021/05/08 04:19:57;;;;;;;9.45;6.88;;;;;;;;;;5042580;28;20238;-53
2021/05/08 04:22:24;;;;;;;8.73;6.57;;;;;;;;;;5059787;28;20283;-49
2021/05/08 04:25:09;;;;;;;11.63;8.18;;;;;;;;;;5059448;28;20244;-57
2021/05/08 04:27:35;;;;;;;8.05;6.90;;;;;;;;;;5049588;28;20271;-60
2021/05/08 04:30:04;;;;;;;10.82;6.75;;;;;;;;;;5058852;28;20234;-52
2021/05/08 04:32:30;;;;;;;9.48;6.57;;;;;;;;;;5060302;28;20191;-59
2021/05/08 04:34:57;;;;;;;9.00;6.68;;;;;;;;;;5059562;28;20208;-58
2021/05/08 04:37:41;;;;;;;8.80;6.82;;;;;;;;;;5059035;28;20188;-55
2021/05/08 04:40:08;;;;;;;12.52;7.53;;;;;;;;;;5059804;28;20195;-56
2021/05/08 04:42:35;;;;;;;7.75;6.80;;;;;;;;;;5059688;28;20211;-54
2021/05/08 04:45:11;;;;;;;11.13;7.97;;;;;;;;;;5059586;28;20203;-59
2021/05/08 04:47:38;;;;;;;15.43;8.65;;;;;;;;;;5054627;28;20219;-56
2021/05/08 04:50:05;;;;;;;9.75;6.45;;;;;;;;;;5059180;28;20222;-52
2021/05/08 04:52:37;;;;;;;11.05;6.30;;;;;;;;;;5059255;28;20207;-54
2021/05/08 04:55:04;;;;;;;9.45;6.28;;;;;;;;;;5058888;28;20191;-54
2021/05/08 04:57:30;;;;;;;7.28;5.60;;;;;;;;;;5071376;28;20489;-56
2021/05/08 04:59:58;;;;;;;11.38;5.88;;;;;;;;;;5072969;28;20204;-58
2021/05/08 05:02:25;;;;;;;8.30;5.88;;;;;;;;;;5058504;28;20218;-53
2021/05/08 05:04:52;;;;;;;7.97;5.80;;;;;;;;;;5058546;28;20214;-60
2021/05/08 05:07:54;;;;;;;7.70;5.50;;;;;;;;;;5059255;28;20223;-54
2021/05/08 05:10:21;;;;;;;5.57;4.97;;;;;;;;;;5058249;28;20215;-55
2021/05/08 05:12:48;;;;;;;5.82;5.20;;;;;;;;;;5058527;28;20211;-51
2021/05/08 05:15:43;;;;;;;8.10;4.50;;;;;;;;;;5058173;28;20210;-52
2021/05/08 05:18:14;;;;;;;7.57;5.30;;;;;;;;;;5057605;28;20208;-53
2021/05/08 05:20:41;;;;;;;9.35;5.72;;;;;;;;;;5058064;28;20222;-54
2021/05/08 05:23:13;;;;;;;6.35;4.75;;;;;;;;;;5057340;28;20218;-52
2021/05/08 05:25:40;;;;;;;5.68;4.65;;;;;;;;;;5057300;28;20214;-53
2021/05/08 05:28:19;;;;;;;9.68;4.50;;;;;;;;;;5057856;28;20215;-55
2021/05/08 05:30:47;;;;;;;6.85;4.07;;;;;;;;;;5057552;28;20354;-59
2021/05/08 05:33:14;;;;;;;4.95;3.90;;;;;;;;;;5057242;28;20199;-57
2021/05/08 05:35:42;;;;;;;5.55;4.65;;;;;;;;;;5056642;28;20448;-55
2021/05/08 05:38:09;;;;;;;8.45;4.30;;;;;;;;;;5057430;28;20207;-58
2021/05/08 05:40:35;;;;;;;6.40;4.50;;;;;;;;;;5057214;28;20195;-56
2021/05/08 05:43:08;;;;;;;7.65;5.07;;;;;;;;;;5054108;28;20201;-57
2021/05/08 05:45:35;;;;;;;7.43;5.22;;;;;;;;;;5039536;28;20212;-60
2021/05/08 05:48:02;;;;;;;7.03;4.82;;;;;;;;;;5057006;28;20231;-56
2021/05/08 05:50:38;;;;;;;6.10;4.22;;;;;;;;;;5057050;28;20234;-58
2021/05/08 05:53:05;;;;;;;7.03;4.53;;;;;;;;;;5058104;28;20203;-55
2021/05/08 05:55:32;;;;;;;5.43;3.92;;;;;;;;;;5058508;28;20213;-55
2021/05/08 05:57:59;;;;;;;7.50;3.57;;;;;;;;;;5058052;28;20218;-57
2021/05/08 06:00:26;;;;;;;5.50;3.92;;;;;;;;;;5057260;28;20442;-56
2021/05/08 06:02:53;;;;;;;6.00;3.75;;;;;;;;;;5056021;28;20207;-56
2021/05/08 06:05:20;;;;;;;6.67;4.17;;;;;;;;;;5057189;28;20207;-55
2021/05/08 06:07:48;;;;;;;5.47;3.60;;;;;;;;;;5056210;28;20458;-58
2021/05/08 06:10:43;;;;;;;7.13;3.80;;;;;;;;;;5056432;28;20450;-55
2021/05/08 06:13:11;;;;;;;8.80;5.00;;;;;;;;;;5056635;28;20218;-53
2021/05/08 06:15:39;;;;;;;5.57;3.70;;;;;;;;;;5056108;28;20485;-58
2021/05/08 06:18:07;;;;;;;5.73;3.73;;;;;;;;;;5053998;28;20231;-59
2021/05/08 06:20:34;;;;;;;7.53;3.83;;;;;;;;;;5055981;28;20484;-56
2021/05/08 06:23:02;;;;;;;11.37;5.00;;;;;;;;;;5055383;28;20533;-58
2021/05/08 06:25:30;;;;;;;10.13;4.17;;;;;;;;;;5055071;28;20437;-50
2021/05/08 06:27:57;;;;;;;8.20;4.30;;;;;;;;;;5044317;28;20492;-57
2021/05/08 06:30:26;;;;;;;4.90;3.67;;;;;;;;;;5075383;28;20441;-57
2021/05/08 06:33:07;;;;;;;6.60;3.90;;;;;;;;;;5074942;28;20479;-58
2021/05/08 06:35:34;;;;;;;6.30;4.37;;;;;;;;;;5049079;28;20446;-55
2021/05/08 06:38:02;;;;;;;6.50;4.40;;;;;;;;;;5055347;28;20469;-52
2021/05/08 06:40:57;;;;;;;7.00;4.50;;;;;;;;;;5055242;28;20450;-59
2021/05/08 06:43:24;;;;;;;7.70;4.33;;;;;;;;;;5054217;28;20458;-60
2021/05/08 06:45:51;;;;;;;7.17;3.47;;;;;;;;;;5055430;28;20480;-59
2021/05/08 06:48:37;;;;;;;6.40;3.50;;;;;;;;;;5055375;28;20549;-57
2021/05/08 06:51:05;;;;;;;5.63;4.03;;;;;;;;;;5056002;28;20454;-51
2021/05/08 06:53:33;;;;;;;4.60;3.90;;;;;;;;;;5055958;28;20458;-57
2021/05/08 06:56:04;;;;;;;6.23;3.60;;;;;;;;;;5055189;28;20465;-53
2021/05/08 06:58:39;;;;;;;6.40;4.20;;;;;;;;;;5054749;28;20442;-54
2021/05/08 07:01:11;;;;;;;6.50;3.60;;;;;;;;;;5055017;28;20486;-53
2021/05/08 07:03:38;;;;;;;8.57;5.07;;;;;;;;;;5054352;28;20542;-54
2021/05/08 07:06:05;;;;;;;5.70;4.60;;;;;;;;;;5054910;28;20449;-60
2021/05/08 07:08:33;;;;;;;5.70;3.33;;;;;;;;;;5054808;28;20493;-55
2021/05/08 07:11:00;;;;;;;5.00;3.83;;;;;;;;;;5054884;28;20517;-55
2021/05/08 07:13:33;;;;;;;7.17;3.80;;;;;;;;;;5054886;28;20438;-52
2021/05/08 07:16:01;;;;;;;10.07;4.90;;;;;;;;;;5055279;28;20438;-54
2021/05/08 07:18:28;;;;;;;7.30;3.93;;;;;;;;;;5055080;28;20469;-51
2021/05/08 07:20:57;;;;;;;6.80;3.53;;;;;;;;;;5055561;28;20477;-50
2021/05/08 07:23:26;;;;;;;5.77;3.70;;;;;;;;;;5055535;28;20449;-52
2021/05/08 07:25:54;;;;;;;9.50;3.87;;;;;;;;;;5055629;28;20489;-51
2021/05/08 07:28:26;;;;;;;8.90;4.30;;;;;;;;;;5053323;28;20476;-54
2021/05/08 07:30:56;;;;;;;7.50;4.27;;;;;;;;;;5055087;28;20479;-56
2021/05/08 07:33:24;;;;;;;9.00;3.97;;;;;;;;;;5054067;28;20470;-57
2021/05/08 07:35:53;;;;;;;7.63;4.37;;;;;;;;;;5055086;28;20446;-52
2021/05/08 07:38:20;;;;;;;7.13;4.13;;;;;;;;;;5041239;28;20497;-59
2021/05/08 07:40:50;;;;;;;9.13;4.10;;;;;;;;;;5052806;28;20466;-55
2021/05/08 07:43:19;;;;;;;7.20;4.50;;;;;;;;;;5047299;28;20470;-60
2021/05/08 07:45:45;;;;;;;9.47;4.03;;;;;;;;;;5060372;28;20426;-53
2021/05/08 07:48:13;;;;;;;6.43;3.90;;;;;;;;;;5049558;28;20473;-53
2021/05/08 07:50:40;;;;;;;7.40;4.60;;;;;;;;;;5053678;28;20454;-55
2021/05/08 07:53:07;;;;;;;8.57;4.23;;;;;;;;;;5053964;28;20469;-51
2021/05/08 07:55:35;;;;;;;5.70;3.60;;;;;;;;;;5034541;28;20526;-54
2021/05/08 07:58:04;;;;;;;5.93;3.63;;;;;;;;;;5053035;28;20461;-57
2021/05/08 08:00:50;;;;;;;6.13;3.80;;;;;;;;;;5049427;28;20549;-57
2021/05/08 08:03:23;;;;;;;5.13;3.23;;;;;;;;;;5054310;28;20468;-59
2021/05/08 08:05:50;;;;;;;7.30;4.10;;;;;;;;;;5054197;28;20453;-53
2021/05/08 08:08:19;;;;;;;12.17;6.80;;;;;;;;;;5053591;28;20486;-59
2021/05/08 08:10:46;;;;;;;7.40;4.30;;;;;;;;;;5053890;28;20454;-54
2021/05/08 08:13:13;;;;;;;6.90;3.40;;;;;;;;;;5051043;28;20458;-54
2021/05/08 08:15:39;;;;;;;6.20;4.17;;;;;;;;;;5054645;28;20457;-60
2021/05/08 08:18:09;;;;;;;6.43;3.70;;;;;;;;;;5054262;28;20534;-55
2021/05/08 08:20:37;;;;;;;6.70;4.47;;;;;;;;;;5053699;28;20450;-56
2021/05/08 08:23:21;;;;;;;7.50;3.83;;;;;;;;;;5054043;28;20500;-57
2021/05/08 08:25:50;;;;;;;6.43;4.00;;;;;;;;;;5053881;28;20529;-57
2021/05/08 08:28:16;;;;;;;6.83;3.67;;;;;;;;;;5052248;28;20557;-58
2021/05/08 08:30:44;;;;;;;6.13;3.50;;;;;;;;;;5048764;28;20426;-52
2021/05/08 08:33:11;;;;;;;8.70;3.73;;;;;;;;;;5049250;28;20482;-54
2021/05/08 08:35:39;;;;;;;9.50;4.73;;;;;;;;;;5050782;28;20513;-59
2021/05/08 08:38:06;;;;;;;8.93;3.30;;;;;;;;;;5053897;28;20478;-57
2021/05/08 08:40:33;;;;;;;7.13;4.10;;;;;;;;;;5053626;28;20453;-56
2021/05/08 08:43:05;;;;;;;6.63;3.70;;;;;;;;;;5053762;28;20470;-56
2021/05/08 08:45:34;;;;;;;6.33;3.20;;;;;;;;;;5037488;28;20470;-57
2021/05/08 08:48:01;;;;;;;8.50;3.60;;;;;;;;;;5049911;28;20503;-57
2021/05/08 08:50:49;;;;;;;6.83;3.40;;;;;;;;;;5049465;28;20469;-55
2021/05/08 08:53:16;;;;;;;7.97;3.30;;;;;;;;;;5053760;28;20472;-56
2021/05/08 08:55:48;;;;;;;10.20;4.20;;;;;;;;;;5049947;28;20473;-55
2021/05/08 08:58:15;;;;;;;8.67;3.17;;;;;;;;;;5054694;28;20557;-56
2021/05/08 09:00:42;;;;;;;8.13;3.57;;;;;;;;;;5057272;28;20498;-52
2021/05/08 09:03:31;;;;;;;7.63;3.90;;;;;;;;;;5051038;28;20465;-57
2021/05/08 09:06:00;;;;;;;6.27;3.40;;;;;;;;;;5051683;28;20442;-53
2021/05/08 09:08:29;;;;;;;6.53;3.80;;;;;;;;;;5053336;28;20477;-51
2021/05/08 09:11:15;;;;;;;7.50;3.87;;;;;;;;;;5057943;28;20457;-55
2021/05/08 09:13:42;;;;;;;5.67;3.27;;;;;;;;;;5038140;28;20473;-56
2021/05/08 09:16:09;;;;;;;4.80;3.13;;;;;;;;;;5057446;28;20448;-56
2021/05/08 09:18:37;;;;;;;5.07;3.07;;;;;;;;;;5057263;28;20446;-55
2021/05/08 09:21:06;;;;;;;5.40;3.13;;;;;;;;;;5057989;28;20459;-57
2021/05/08 09:23:35;;;;;;;5.50;3.27;;;;;;;;;;5057172;28;20442;-56
2021/05/08 09:26:05;;;;;;;5.10;3.13;;;;;;;;;;5053322;28;20449;-52
2021/05/08 09:28:37;;;;;;;9.63;3.20;;;;;;;;;;5056786;28;20509;-58
2021/05/08 09:31:13;;;;;;;8.83;4.10;;;;;;;;;;5056448;28;20565;-55
2021/05/08 09:33:42;;;;;;;7.77;2.83;;;;;;;;;;5036853;28;20885;-58
2021/05/08 09:36:11;;;;;;;9.53;3.40;;;;;;;;;;5055049;28;20461;-57
2021/05/08 09:38:39;;;;;;;7.73;3.83;;;;;;;;;;5066010;28;20438;-54
2021/05/08 09:41:06;;;;;;;6.73;3.57;;;;;;;;;;5058727;28;20548;-51
2021/05/08 09:43:34;;;;;;;4.77;2.80;;;;;;;;;;5056248;28;20434;-56
2021/05/08 09:46:09;;;;;;;5.00;2.90;;;;;;;;;;5056143;28;20466;-58
2021/05/08 09:48:37;;;;;;;9.60;3.50;;;;;;;;;;5055171;28;20574;-54
2021/05/08 09:54:15;;;;;;;5.30;2.87;;;;;;;;;;5055929;28;20465;-55
2021/05/08 09:56:42;;;;;;;5.50;3.27;;;;;;;;;;5056033;28;20476;-52
2021/05/08 09:59:24;;;;;;;6.10;3.37;;;;;;;;;;5055868;28;20458;-60
2021/05/08 10:01:51;;;;;;;4.33;2.50;;;;;;;;;;5053138;28;20486;-53
2021/05/08 10:04:36;;;;;;;7.17;3.20;;;;;;;;;;5056232;28;20449;-56
2021/05/08 10:07:12;;;;;;;9.60;3.13;;;;;;;;;;5056769;28;20430;-53
2021/05/08 10:09:40;;;;;;;5.90;3.53;;;;;;;;;;5056007;28;20484;-54
2021/05/08 10:12:23;;;;;;;6.07;3.20;;;;;;;;;;5055985;28;20458;-56
2021/05/08 10:14:50;;;;;;;7.43;3.50;;;;;;;;;;5056508;28;20438;-53
2021/05/08 10:17:18;;;;;;;4.73;3.30;;;;;;;;;;5056210;28;20454;-52
2021/05/08 10:19:46;;;;;;;5.60;3.80;;;;;;;;;;5056251;28;20431;-57
2021/05/08 10:22:15;;;;;;;5.20;2.73;;;;;;;;;;5055598;28;20453;-59
2021/05/08 10:24:42;;;;;;;9.10;3.70;;;;;;;;;;5060316;28;20445;-56
2021/05/08 10:30:14;;;;;;;10.10;2.80;;;;;;;;;;5064234;28;20436;-55
2021/05/08 10:32:43;;;;;;;5.17;2.80;;;;;;;;;;5055851;28;20459;-56
2021/05/08 10:35:23;;;;;;;4.70;2.17;;;;;;;;;;5056085;28;20466;-53
2021/05/08 10:38:16;;;;;;;5.27;3.10;;;;;;;;;;5054275;28;20450;-54
2021/05/08 10:41:04;;;;;;;4.40;2.10;;;;;;;;;;5049271;28;20463;-55
2021/05/08 10:44:04;;;;;;;5.03;2.80;;;;;;;;;;5056271;28;20457;-54
2021/05/08 10:46:53;;;;;;;8.10;2.90;;;;;;;;;;5056226;28;20438;-56
2021/05/08 10:49:21;;;;;;;12.73;3.17;;;;;;;;;;5055693;28;20449;-55
2021/05/08 10:52:11;;;;;;;9.10;3.10;;;;;;;;;;5055584;28;20457;-58
2021/05/08 10:54:58;;;;;;;10.00;3.70;;;;;;;;;;5047874;28;20473;-56
2021/05/08 10:57:33;;;;;;;9.13;3.30;;;;;;;;;;5049112;28;20539;-52
2021/05/08 11:00:28;;;;;;;6.50;3.40;;;;;;;;;;5057513;28;20457;-54
2021/05/08 11:03:11;;;;;;;4.30;2.33;;;;;;;;;;5075393;28;20522;-49
2021/05/08 11:05:50;;;;;;;6.07;2.90;;;;;;;;;;5075214;28;20484;-53
2021/05/08 11:08:35;;;;;;;4.80;2.77;;;;;;;;;;5057382;28;20497;-55
2021/05/08 11:11:07;;;;;;;7.50;3.50;;;;;;;;;;5055179;28;20552;-54
2021/05/08 11:13:50;;;;;;;3.63;2.63;;;;;;;;;;5055296;28;20454;-58
2021/05/08 11:16:36;;;;;;;5.57;3.03;;;;;;;;;;5055190;28;20493;-54
2021/05/08 11:19:05;;;;;;;5.33;2.57;;;;;;;;;;5055086;28;20720;-52
2021/05/08 11:22:15;;;;;;;6.23;3.60;;;;;;;;;;5054792;28;20469;-50
2021/05/08 11:24:42;;;;;;;10.30;3.37;;;;;;;;;;5049151;28;20453;-53
2021/05/08 11:27:23;;;;;;;6.53;2.37;;;;;;;;;;5055112;28;20481;-53
2021/05/08 11:29:50;;;;;;;6.90;3.60;;;;;;;;;;5054208;28;20457;-53
2021/05/08 11:32:17;;;;;;;4.50;2.00;;;;;;;;;;5054691;28;20465;-50
2021/05/08 11:35:07;;;;;;;5.67;2.37;;;;;;;;;;5045682;28;20521;-53
2021/05/08 11:37:35;;;;;;;6.47;2.00;;;;;;;;;;5049065;28;20489;-55
2021/05/08 11:40:02;;;;;;;3.30;1.70;;;;;;;;;;5054472;28;20446;-55
2021/05/08 11:42:46;;;;;;;4.10;1.50;;;;;;;;;;5054634;28;20465;-57
2021/05/08 11:45:13;;;;;;;3.90;1.50;;;;;;;;;;5039928;28;20476;-49
2021/05/08 11:47:40;;;;;;;4.57;1.20;;;;;;;;;;5055291;28;20488;-56
2021/05/08 11:53:16;;;;;;;3.57;1.33;;;;;;;;;;5035555;28;20493;-55
2021/05/08 11:55:47;;;;;;;4.63;1.23;;;;;;;;;;5015915;28;20439;-53
2021/05/08 11:58:37;;;;;;;3.00;1.30;;;;;;;;;;5014720;28;20502;-54
2021/05/08 12:01:05;;;;;;;6.10;3.00;;;;;;;;;;5015297;28;20440;-58
2021/05/08 12:03:33;;;;;;;3.80;1.50;;;;;;;;;;5020054;28;20439;-57
2021/05/08 12:09:11;;;;;;;3.83;1.20;;;;;;;;;;5033275;28;20512;-55
2021/05/08 12:11:38;;;;;;;2.30;0.93;;;;;;;;;;5060918;28;20447;-57
2021/05/08 12:14:18;;;;;;;2.93;1.20;;;;;;;;;;5054843;28;20434;-50
2021/05/08 12:16:46;;;;;;;2.90;1.77;;;;;;;;;;5054692;28;20448;-50
2021/05/08 12:19:34;;;;;;;3.07;1.10;;;;;;;;;;5053906;28;20458;-55
2021/05/08 12:22:10;;;;;;;4.57;1.60;;;;;;;;;;5046494;28;20434;-58
2021/05/08 12:24:38;;;;;;;3.37;1.50;;;;;;;;;;5045372;28;20490;-57
2021/05/08 12:27:05;;;;;;;4.33;1.70;;;;;;;;;;5038649;28;20588;-55
2021/05/08 12:29:51;;;;;;;5.20;1.83;;;;;;;;;;5053892;28;20454;-55
2021/05/08 12:32:18;;;;;;;6.13;1.57;;;;;;;;;;5054164;28;20481;-56
2021/05/08 12:34:51;;;;;;;2.60;1.20;;;;;;;;;;5057982;28;20446;-54
2021/05/08 12:37:44;;;;;;;3.83;1.50;;;;;;;;;;5048063;28;20468;-55
2021/05/08 12:40:13;;;;;;;6.27;1.70;;;;;;;;;;5064359;28;20461;-52
2021/05/08 12:42:44;;;;;;;3.47;2.43;;;;;;;;;;5057929;28;20445;-50
2021/05/08 12:45:12;;;;;;;3.63;1.27;;;;;;;;;;5057382;28;20460;-57
2021/05/08 12:47:41;;;;;;;3.60;1.83;;;;;;;;;;5057811;28;20543;-54
2021/05/08 12:50:10;;;;;;;5.93;2.10;;;;;;;;;;5058106;28;20437;-49
2021/05/08 12:53:09;;;;;;;3.80;1.50;;;;;;;;;;5058102;28;20513;-48
2021/05/08 12:55:38;;;;;;;4.30;2.17;;;;;;;;;;5046267;28;20500;-59
2021/05/08 12:58:08;;;;;;;2.90;1.53;;;;;;;;;;5057885;28;20452;-57
2021/05/08 13:00:39;;;;;;;3.67;1.60;;;;;;;;;;5057689;28;20448;-52
2021/05/08 13:03:29;;;;;;;3.33;1.60;;;;;;;;;;5057706;28;20468;-51
2021/05/08 13:06:05;;;;;;;4.73;1.30;;;;;;;;;;5057995;28;20448;-55
2021/05/08 13:08:47;;;;;;;3.87;1.70;;;;;;;;;;5050162;28;20493;-59
2021/05/08 13:11:30;;;;;;;3.70;1.83;;;;;;;;;;5058382;28;20458;-47
2021/05/08 13:14:12;;;;;;;6.00;1.67;;;;;;;;;;5037977;28;20545;-55
2021/05/08 13:16:55;;;;;;;3.40;1.37;;;;;;;;;;5056763;28;20446;-49
2021/05/08 13:19:26;;;;;;;4.43;1.20;;;;;;;;;;5033586;28;20477;-49
2021/05/08 13:24:59;;;;;;;3.40;1.80;;;;;;;;;;5056823;28;20437;-55
2021/05/08 13:27:28;;;;;;;5.07;2.70;;;;;;;;;;5057388;28;21217;-50
2021/05/08 13:29:56;;;;;;;3.20;1.60;;;;;;;;;;5057009;28;20462;-56
2021/05/08 13:32:36;;;;;;;3.50;1.60;;;;;;;;;;5056509;28;20503;-56
2021/05/08 13:35:19;;;;;;;3.13;1.30;;;;;;;;;;5057018;28;20540;-48
2021/05/08 13:37:56;;;;;;;5.50;2.27;;;;;;;;;;5057172;28;20457;-55
2021/05/08 13:40:26;;;;;;;3.73;1.30;;;;;;;;;;5052468;28;20480;-54
2021/05/08 13:46:01;;;;;;;6.13;2.67;;;;;;;;;;5050440;28;20433;-59
2021/05/08 13:48:30;;;;;;;4.33;1.67;;;;;;;;;;5038214;28;20502;-54
2021/05/08 13:50:59;;;;;;;4.47;1.40;;;;;;;;;;5037931;28;20467;-58
2021/05/08 13:53:28;;;;;;;4.53;1.77;;;;;;;;;;5050462;28;20450;-56
2021/05/08 13:55:58;;;;;;;3.90;1.60;;;;;;;;;;5049969;28;20454;-49
2021/05/08 14:01:40;;;;;;;4.10;2.10;;;;;;;;;;5036744;28;20493;-56
2021/05/08 14:04:09;;;;;;;4.73;1.60;;;;;;;;;;5039080;28;20415;-55
2021/05/08 14:07:03;;;;;;;3.80;1.73;;;;;;;;;;5021089;28;20451;-51
2021/05/08 14:09:30;;;;;;;3.70;2.20;;;;;;;;;;5037736;28;20583;-57
2021/05/08 14:11:58;;;;;;;5.20;1.90;;;;;;;;;;5037726;28;20453;-58
2021/05/08 14:14:48;;;;;;;2.80;1.40;;;;;;;;;;5037277;28;20451;-59
2021/05/08 14:17:15;;;;;;;4.50;1.40;;;;;;;;;;5049818;28;20501;-60
2021/05/08 14:19:53;;;;;;;3.50;1.70;;;;;;;;;;5057553;28;20450;-48
2021/05/08 14:22:27;;;;;;;5.33;1.80;;;;;;;;;;5058160;28;20445;-56
2021/05/08 14:24:59;;;;;;;3.43;1.47;;;;;;;;;;5057684;28;20484;-56
2021/05/08 14:27:30;;;;;;;3.00;1.77;;;;;;;;;;5055534;28;20461;-51
2021/05/08 14:30:16;;;;;;;2.73;1.33;;;;;;;;;;5057365;28;20446;-51
2021/05/08 14:32:45;;;;;;;3.10;1.40;;;;;;;;;;5050603;28;20466;-53
2021/05/08 14:35:13;;;;;;;3.63;1.20;;;;;;;;;;5057318;28;20461;-55
2021/05/08 14:38:07;;;;;;;3.50;1.80;;;;;;;;;;5057207;28;20458;-49
2021/05/08 14:40:35;;;;;;;6.40;2.20;;;;;;;;;;5032679;28;20519;-52
2021/05/08 14:43:02;;;;;;;5.30;2.47;;;;;;;;;;5034127;28;20518;-54
2021/05/08 14:45:32;;;;;;;6.13;2.80;;;;;;;;;;5037762;28;20454;-56
2021/05/08 14:47:59;;;;;;;6.10;1.80;;;;;;;;;;5037004;28;20495;-48
2021/05/08 14:50:26;;;;;;;3.20;1.60;;;;;;;;;;5036815;28;20514;-52
2021/05/08 14:55:57;;;;;;;6.53;1.87;;;;;;;;;;5035107;28;20460;-58
2021/05/08 14:58:39;;;;;;;2.63;1.60;;;;;;;;;;5052437;28;20461;-57
2021/05/08 15:01:11;;;;;;;5.07;1.83;;;;;;;;;;5016070;28;20447;-57
2021/05/08 15:03:38;;;;;;;4.47;1.70;;;;;;;;;;5025509;28;20454;-56
2021/05/08 15:06:08;;;;;;;3.30;2.00;;;;;;;;;;5037663;28;20501;-58
2021/05/08 15:09:00;;;;;;;3.00;1.40;;;;;;;;;;5041121;28;20542;-57
2021/05/08 15:11:27;;;;;;;3.13;1.33;;;;;;;;;;5052294;28;20476;-55
2021/05/08 15:13:56;;;;;;;3.23;1.90;;;;;;;;;;5028034;28;20459;-55
2021/05/08 15:16:40;;;;;;;5.47;1.90;;;;;;;;;;5034882;28;20451;-54
2021/05/08 15:19:07;;;;;;;3.60;1.53;;;;;;;;;;5035619;28;20474;-53
2021/05/08 15:21:34;;;;;;;2.87;1.47;;;;;;;;;;5035706;28;20485;-56
2021/05/08 15:27:07;;;;;;;6.03;2.00;;;;;;;;;;5045619;28;20484;-59
2021/05/08 15:29:39;;;;;;;4.23;1.57;;;;;;;;;;5055874;28;20486;-58
2021/05/08 15:35:11;;;;;;;7.50;1.90;;;;;;;;;;5055100;28;20409;-52
2021/05/08 15:37:38;;;;;;;5.83;1.70;;;;;;;;;;5054736;28;20458;-55
2021/05/08 15:40:25;;;;;;;7.73;2.20;;;;;;;;;;5055259;28;20484;-50
2021/05/08 15:42:52;;;;;;;7.43;1.87;;;;;;;;;;5054005;28;20532;-51
2021/05/08 15:45:31;;;;;;;3.73;1.40;;;;;;;;;;5054845;28;20449;-53